Terminal Aerodrome Forecast
Issued by NWS Corpus Christi, TX

Home | Current Version | Previous Version | Text Only | Print | Product List | Glossary On
Versions: 1 2 3 4 5 6 7 8 9 10 11 12 13 14 15 16 17 18 19 20 21 22
000
FTUS44 KCRP 180528
TAFCRP
TAF
KCRP 180528Z 1806/1906 14007KT P6SM VCSH FEW015 BKN050
      TEMPO 1809/1813 BKN005
     FM181600 09008G15KT P6SM VCTS BKN020CB OVC150 PROB30 1816/1818
      5SM TSRA OVC015CB
     FM182200 05010KT P6SM SCT020
     FM190200 10010KT P6SM BKN005=

USA.gov is the U.S. government's official web portal to all federal, state and local government web resources and services.